Cape Romanzof Lrrs Airport
PACZ : now visible

Airfield :











YOU CAN JOIN US ON...

 
LOGIN :

Register | Disclaimer

   EN    FR    IT 

 









Legend :    VFR   Marginal VFR   IFR   Intensive IFR   Very Intensive IFR
Visi :
Ceiling :
>= 8 km
>= 3000ft
5 to 8 km
1000 to 3000 ft
1500m to 5 km
500 to 1000 ft
800 to 1500m
200 to 500 ft
< 800m
< 200 ft
Symbols :   Thunderstorms  Fog  Heavy snow  Heavy precipitations  Wind > 20 kt






- Airport Elevation : 464 ft
- IATA code : CZF


PACZ - Cape Romanzof Lrrs

CURRENT METAR :
  • 162355Z AUTO 03027KT 1/4SM -SN FZFG VV004 M11/M11 A2942 RMK AO2 PK WND 02030/2343 SNB2155 SLP975 P0000 60000 T11091108 11100 21116 58019

EXPIRED METARs :
  • 162327Z AUTO 03023KT 1/4SM -SN FZFG BKN002 M11/M11 A2943 RMK AO2 PK WND 03028/2316 SLP981
  • 162312Z AUTO 03023KT 1/4SM -SN FZFG VV004 M11/M11 A2943 RMK AO2 PK WND 04026/2308 SLP980
  • 162255Z AUTO 03021KT 1/2SM -SN FZFG VV003 M11/M11 A2945 RMK AO2 PK WND 04026/2233 SNB2155 SLP985 P0000 T11111111
  • 162242Z AUTO 04020KT 1/2SM -SN FZFG VV003 M11/M11 A2946 RMK AO2 PK WND 04026/2233 SLP988
  • 162227Z AUTO 03020KT 1/4SM -SN FZFG VV003 M11/M11 A2946 RMK AO2 SLP990
  • 162212Z AUTO 04022KT 1/4SM -SN FZFG VV002 M11/M12 A2946 RMK AO2 SLP992
  • 162155Z AUTO 04021KT 3/4SM -SN BR VV003 M11/M11 A2947 RMK AO2 SNB2018 SLP992 P0000 T11101110
  • 162142Z AUTO 04020KT 1SM -SN BR VV003 M11/M11 A2947 RMK AO2 SLP992
  • 162127Z AUTO 04019KT 2 1/2SM -SN BR BKN003 M10/M10 A2947 RMK AO2 SLP993
  • 162112Z AUTO 04020KT 7SM -SN BKN004 M10/M10 A2947 RMK AO2 SLP993
  • 162055Z AUTO 04017KT 1/2SM -SN FZFG VV003 M10/M10 A2948 RMK AO2 SNB2018 SLP995 P0000 60000 T11051105 54001

Expired Forecast.
PAZA FIR / North America



MET'MAP, your aeronautical weather chart ! - Copyright ORBIFLY December 2007 - Disclaimer

ORBIFLY MET'MAP TEAM :

Programming & Development : Alexandra Zaïnal
Concept & original design : Baudouin d'Aumeries
Assistance for programming : Marc-Olivier Méhu
Technical & hardware support : Manuel Goepfert

Contact : metmap@orbifly.com




SOURCES & CREDITS :

   NOAA       Earth
Advisory